Weather reports worldwide

Advertisment
Mumbles, United Kingdom (3609): temperature & dewpoint: 26.10.2020 01:00:00 - 01.11.2020 01:00:00 (GMT)Mumbles, United Kingdom (3609): wind speed & gusts: 26.10.2020 01:00:00 - 01.11.2020 01:00:00 (GMT)Mumbles, United Kingdom (3609): wind direction: 26.10.2020 01:00:00 - 01.11.2020 01:00:00 (GMT)Mumbles, United Kingdom (3609): reduced air pressure: 26.10.2020 01:00:00 - 01.11.2020 01:00:00 (GMT)Mumbles, United Kingdom (3609): precipitation: 26.10.2020 01:00:00 - 01.11.2020 01:00:00 (GMT)
Date & Time tt [°C] td [°C] ff [km/h] ff [kn] fx [km/h] fx [kn] dd ppp [hPa] rr [mm]
01.11.2020 01:00:00 11,7 8,3 50 27 65 35 S 1005,8 0,0
01.11.2020 00:00:00 11,6 8,0 46 25 57 31 S 1006,9 0,2
31.10.2020 23:00:00 10,7 7,1 50 27 67 36 SSW 1007,9 0,0
31.10.2020 22:00:00 11,4 8,4 44 24 65 35 S 1008,7 0,0
31.10.2020 21:00:00 12,1 6,8 46 25 59 32 SW 1009,3 0,0
31.10.2020 20:00:00 12,2 6,0 46 25 57 31 SW 1009,2 0,0
31.10.2020 19:00:00 12,2 6,9 52 28 59 32 WSW 1009,5 0,0
31.10.2020 18:00:00 12,0 6,1 46 25 70 38 WSW 1009,2 0,0
31.10.2020 17:00:00 12,2 6,8 50 27 70 38 WSW 1008,9 0,0
31.10.2020 16:00:00 11,9 7,1 54 29 76 41 WSW 1008,4 0,0
31.10.2020 15:00:00 12,2 7,8 52 28 78 42 WSW 1007,5 0,0
31.10.2020 14:00:00 12,4 7,2 54 29 72 39 WSW 1006,6 0,0
31.10.2020 13:00:00 12,7 7,3 59 32 78 42 WSW 1006,0 0,0
31.10.2020 12:00:00 13,0 8,0 63 34 85 46 WSW 1004,7 0,0
31.10.2020 11:00:00 12,8 8,6 67 36 94 51 WSW 1003,5 0,0
31.10.2020 10:00:00 13,7 12,5 72 39 96 52 SSW 1001,3 0,8
31.10.2020 09:00:00 14,4 13,0 59 32 78 42 S 1001,8 3,6
31.10.2020 08:00:00 14,9 12,6 54 29 74 40 S 1002,3 0,2
31.10.2020 07:00:00 14,6 12,4 55 30 72 39 S 1004,0 0,2
31.10.2020 06:00:00 14,9 12,2 48 26 59 32 S 1005,8 0,0
31.10.2020 05:00:00 14,5 12,1 50 27 74 40 S 1007,8 0,0
31.10.2020 04:00:00 14,4 11,4 41 22 54 29 S 1009,4 0,0
31.10.2020 03:00:00 14,6 11,6 35 19 57 31 S 1011,3 0,0
31.10.2020 02:00:00 14,1 12,6 37 20 46 25 S 1012,4 0,0
31.10.2020 01:00:00 14,3 12,8 24 13 - - S 1013,3 0,0
31.10.2020 00:00:00 13,9 12,9 24 13 57 31 SSE 1014,0 0,2
30.10.2020 23:00:00 13,9 13,2 31 17 - - SSE 1014,5 0,0
30.10.2020 22:00:00 13,6 13,4 26 14 - - SSE 1015,5 0,2
30.10.2020 21:00:00 12,9 12,6 31 17 - - ESE 1016,0 1,4
30.10.2020 20:00:00 12,7 12,4 21 11 - - ESE 1016,6 2,2
30.10.2020 19:00:00 12,6 12,2 13 7 - - E 1017,0 2,4
30.10.2020 18:00:00 12,6 12,1 5 3 - - ESE 1017,2 1,8
30.10.2020 17:00:00 12,8 12,3 8 4 - - S 1017,0 0,0
30.10.2020 16:00:00 12,9 12,3 11 6 - - WSW 1016,8 0,0
30.10.2020 15:00:00 12,9 12,3 18 10 - - WSW 1016,6 0,0
30.10.2020 14:00:00 12,9 12,4 24 13 - - WSW 1016,4 0,0
30.10.2020 13:00:00 13,2 12,8 22 12 - - WSW 1016,0 0,0
30.10.2020 12:00:00 13,4 13,2 28 15 - - WSW 1015,7 0,2
30.10.2020 11:00:00 13,6 13,3 37 20 48 26 SW 1015,0 0,2
30.10.2020 10:00:00 13,6 13,3 42 23 52 28 SW 1014,3 0,4
30.10.2020 09:00:00 13,6 13,3 44 24 59 32 SW 1013,5 1,0
30.10.2020 08:00:00 13,6 13,2 50 27 59 32 SW 1012,7 1,2
30.10.2020 07:00:00 13,5 13,2 52 28 68 37 SW 1012,0 0,2
30.10.2020 06:00:00 13,5 13,2 57 31 74 40 SW 1011,5 0,6
30.10.2020 05:00:00 13,6 13,1 63 34 74 40 SW 1011,1 0,4
30.10.2020 04:00:00 13,6 13,1 63 34 72 39 SW 1010,9 0,4
30.10.2020 03:00:00 13,6 13,0 63 34 72 39 SW 1011,1 0,2
30.10.2020 02:00:00 13,7 12,9 57 31 76 41 SW 1011,3 0,2
30.10.2020 01:00:00 13,8 12,7 61 33 72 39 SW 1011,2 0,0
30.10.2020 00:00:00 13,6 12,8 59 32 70 38 SW 1010,6 0,0
29.10.2020 23:00:00 13,6 12,7 59 32 70 38 SW 1010,8 0,0
29.10.2020 22:00:00 14,0 12,4 55 30 67 36 SW 1010,8 0,0
29.10.2020 21:00:00 14,1 12,4 54 29 70 38 SW 1010,8 0,0
29.10.2020 20:00:00 14,0 12,3 57 31 68 37 SW 1010,7 0,0
29.10.2020 19:00:00 13,9 12,5 54 29 67 36 SW 1010,6 0,0
29.10.2020 18:00:00 13,9 12,5 57 31 76 41 SW 1010,3 0,0
29.10.2020 17:00:00 14,0 12,5 63 34 78 42 SW 1009,7 0,0
29.10.2020 16:00:00 13,8 12,6 65 35 74 40 SW 1009,7 0,0
29.10.2020 15:00:00 13,8 12,5 61 33 74 40 SW 1009,8 0,2
29.10.2020 14:00:00 13,6 12,5 59 32 74 40 SW 1010,0 0,0
29.10.2020 13:00:00 13,7 12,4 55 30 72 39 SW 1010,2 0,0
29.10.2020 12:00:00 13,6 12,3 59 32 70 38 SW 1010,3 0,0
29.10.2020 11:00:00 13,2 12,5 52 28 68 37 SW 1010,6 0,4
29.10.2020 10:00:00 13,1 12,5 55 30 67 36 SW 1010,2 1,0
29.10.2020 09:00:00 13,1 12,4 57 31 68 37 SW 1010,0 1,0
29.10.2020 08:00:00 12,7 12,0 54 29 65 35 SW 1009,9 1,0
29.10.2020 07:00:00 12,5 11,7 44 24 59 32 SW 1010,0 1,0
29.10.2020 06:00:00 12,2 11,1 52 28 63 34 SW 1010,3 0,6
29.10.2020 05:00:00 12,1 10,6 59 32 76 41 WSW 1010,2 0,6
29.10.2020 04:00:00 11,9 10,5 44 24 52 28 WSW 1010,0 0,6
29.10.2020 03:00:00 11,4 9,4 42 23 59 32 WSW 1010,6 0,6
29.10.2020 02:00:00 11,8 8,3 - - - - - 1010,4 0,0
29.10.2020 01:00:00 11,2 6,7 34 18 - - W 1009,8 0,0
29.10.2020 00:00:00 10,8 6,1 18 10 46 25 W 1009,1 0,0
28.10.2020 23:00:00 11,3 6,4 34 18 52 28 W 1008,2 0,0
28.10.2020 22:00:00 10,8 6,6 31 17 57 31 W 1007,6 0,2
28.10.2020 21:00:00 11,0 6,0 39 21 54 29 W 1006,5 0,0
28.10.2020 20:00:00 10,2 5,8 26 14 59 32 W 1005,7 2,6
28.10.2020 19:00:00 10,8 6,9 37 20 54 29 W 1004,5 0,2
28.10.2020 18:00:00 8,7 6,5 57 31 94 51 W 1003,7 1,2
28.10.2020 17:00:00 11,1 6,0 57 31 72 39 WSW 1002,0 0,0
28.10.2020 16:00:00 11,1 7,0 59 32 74 40 WSW 1001,9 0,0
28.10.2020 15:00:00 10,1 6,4 31 17 68 37 W 1001,4 0,0
28.10.2020 14:00:00 8,3 6,4 22 12 72 39 W 1001,3 1,4
28.10.2020 13:00:00 10,1 7,5 39 21 59 32 WSW 1001,2 0,0
28.10.2020 12:00:00 8,4 6,6 29 16 54 29 W 1001,2 3,8
28.10.2020 11:00:00 9,4 6,7 29 16 85 46 W 1000,6 0,4
28.10.2020 10:00:00 10,7 7,3 44 24 80 43 SW 1000,1 0,4
28.10.2020 09:00:00 11,7 6,5 54 29 74 40 WSW 999,2 0,0
28.10.2020 08:00:00 11,9 6,6 65 35 76 41 WSW 998,6 0,0
28.10.2020 07:00:00 11,6 7,3 63 34 91 49 SW 998,1 0,6
28.10.2020 06:00:00 11,6 6,9 46 25 63 34 WSW 998,2 0,0
28.10.2020 05:00:00 10,8 7,5 52 28 83 45 SW 998,4 0,0
28.10.2020 04:00:00 11,5 6,0 57 31 74 40 WSW 997,8 0,0
28.10.2020 03:00:00 10,7 6,5 54 29 67 36 SW 998,2 0,0
28.10.2020 02:00:00 10,2 6,7 52 28 87 47 SW 998,2 0,2
28.10.2020 01:00:00 10,5 6,8 52 28 100 54 WSW 998,0 0,2
28.10.2020 00:00:00 11,7 7,2 61 33 83 45 SW 997,2 0,2
27.10.2020 23:00:00 12,1 7,1 63 34 74 40 SW 997,4 0,0
27.10.2020 22:00:00 11,6 6,1 57 31 80 43 SW 997,6 0,0
27.10.2020 21:00:00 12,1 7,0 59 32 68 37 WSW 997,3 0,0
27.10.2020 20:00:00 12,0 7,2 42 23 67 36 WSW 997,2 0,0
27.10.2020 19:00:00 11,9 7,2 50 27 68 37 WSW 997,0 0,0
27.10.2020 18:00:00 12,1 6,0 48 26 70 38 W 996,4 0,0
27.10.2020 17:00:00 12,2 7,0 50 27 65 35 WSW 995,8 0,0
27.10.2020 16:00:00 12,4 6,4 41 22 67 36 W 995,2 0,0
27.10.2020 15:00:00 12,8 8,0 54 29 72 39 WSW 994,5 0,0
27.10.2020 14:00:00 13,3 9,0 54 29 76 41 W 993,8 0,0
27.10.2020 13:00:00 13,2 10,0 46 25 68 37 WSW 993,2 0,2
27.10.2020 12:00:00 13,0 10,9 52 28 68 37 WSW 992,8 0,2
27.10.2020 11:00:00 13,1 12,5 44 24 67 36 WSW 992,3 0,2
27.10.2020 10:00:00 12,6 11,8 50 27 63 34 S 992,3 0,0
27.10.2020 09:00:00 12,4 10,8 28 15 54 29 S 993,5 0,0
27.10.2020 08:00:00 11,7 10,2 39 21 57 31 SSE 994,9 0,0
27.10.2020 07:00:00 11,1 9,7 37 20 54 29 S 995,6 0,2
27.10.2020 06:00:00 10,5 8,9 44 24 57 31 S 996,8 0,0
27.10.2020 05:00:00 10,5 9,3 48 26 63 34 SSW 997,7 0,8
27.10.2020 04:00:00 10,8 9,3 42 23 52 28 SW 998,7 1,2
27.10.2020 03:00:00 11,0 7,8 28 15 54 29 WSW 999,8 0,0
27.10.2020 02:00:00 11,8 6,8 41 22 48 26 WSW 1000,7 0,0
27.10.2020 01:00:00 9,5 7,9 15 8 - - W 1001,4 0,0
27.10.2020 00:00:00 10,0 8,3 26 14 - - WSW 1002,1 0,2
26.10.2020 23:00:00 9,8 6,6 9 5 - - W 1002,4 0,0
26.10.2020 22:00:00 10,2 6,9 16 9 - - W 1002,7 0,0
26.10.2020 21:00:00 10,3 7,2 18 10 - - W 1002,3 0,0
26.10.2020 20:00:00 10,4 7,2 18 10 - - W 1002,1 0,0
26.10.2020 19:00:00 10,6 7,4 18 10 - - W 1001,9 0,0
26.10.2020 18:00:00 10,8 7,6 18 10 - - W 1001,5 0,0
26.10.2020 17:00:00 11,2 7,6 16 9 - - W 1001,1 0,0
26.10.2020 16:00:00 11,5 7,3 24 13 - - W 1000,9 0,6
26.10.2020 15:00:00 11,7 8,2 18 10 48 26 W 1000,4 0,0
26.10.2020 14:00:00 12,6 6,9 22 12 - - W 1000,0 0,0
26.10.2020 13:00:00 13,4 7,7 24 13 48 26 W 999,8 0,0
26.10.2020 12:00:00 12,6 7,5 28 15 46 25 W 999,5 0,0
26.10.2020 11:00:00 12,3 7,5 28 15 46 25 W 999,0 0,0
26.10.2020 10:00:00 11,7 7,5 28 15 48 26 W 998,2 0,0
26.10.2020 09:00:00 10,9 7,9 18 10 - - W 997,6 0,0
26.10.2020 08:00:00 10,4 8,4 24 13 50 27 W 996,4 0,4
26.10.2020 07:00:00 11,0 8,4 31 17 59 32 W 995,3 0,8
26.10.2020 06:00:00 10,8 8,6 41 22 57 31 W 994,6 0,4
26.10.2020 05:00:00 10,4 7,8 22 12 54 29 W 994,7 0,6
26.10.2020 04:00:00 10,4 7,3 26 14 - - W 994,7 0,2
26.10.2020 03:00:00 9,3 7,5 13 7 46 25 W 994,8 0,6
26.10.2020 02:00:00 9,4 7,2 26 14 72 39 W 994,9 1,4
26.10.2020 01:00:00 10,8 6,6 35 19 61 33 W 994,5 0,4

tt = temperature
td = dewpoint
ff = wind speed
fx = gusts
dd = wind direction
ppp = reduced air pressure
rr = precipitation

Next stations